Time;durP1;ratioP1;P1;durP2;ratioP2;P2;SDS_P1;SDS_P2;PMS_P1;PMS_P2;Temp;Humidity;BMP_temperature;BMP_pressure;BME280_temperature;BME280_humidity;BME280_pressure;Samples;Min_cycle;Max_cycle;Signal;HPM_P1;HPM_P2
2022/03/24 00:01:56;;;;;;;60.42;42.58;;;8.00;99.90;;;;;;4993438;28;20441;-74
2022/03/24 00:04:22;;;;;;;63.38;40.95;;;8.00;99.90;;;;;;4992932;28;20065;-74
2022/03/24 00:06:47;;;;;;;64.63;43.95;;;8.00;99.90;;;;;;4992609;28;20374;-74
2022/03/24 00:09:13;;;;;;;64.90;43.92;;;8.00;99.90;;;;;;4992761;28;20053;-74
2022/03/24 00:11:40;;;;;;;67.70;44.63;;;8.00;99.90;;;;;;4999223;28;20402;-74
2022/03/24 00:14:06;;;;;;;66.80;45.13;;;8.00;99.90;;;;;;4989649;28;20520;-74
2022/03/24 00:16:32;;;;;;;63.63;44.28;;;7.90;99.90;;;;;;4994218;28;20080;-74
2022/03/24 00:18:57;;;;;;;63.75;45.10;;;7.90;99.90;;;;;;5006177;28;20520;-74
2022/03/24 00:21:24;;;;;;;62.70;43.63;;;7.90;99.90;;;;;;5007563;28;20067;-74
2022/03/24 00:23:50;;;;;;;62.92;42.35;;;7.90;99.90;;;;;;4990425;28;20046;-74
2022/03/24 00:26:16;;;;;;;67.50;46.35;;;7.80;99.90;;;;;;4990219;28;20410;-75
2022/03/24 00:28:42;;;;;;;71.22;43.85;;;7.80;99.90;;;;;;4993273;28;20045;-74
2022/03/24 00:31:09;;;;;;;63.50;44.47;;;7.80;99.90;;;;;;4990805;28;20068;-74
2022/03/24 00:33:36;;;;;;;65.50;44.35;;;7.70;99.90;;;;;;5006545;28;20084;-74
2022/03/24 00:36:03;;;;;;;72.18;44.72;;;7.70;99.90;;;;;;4992663;28;20099;-74
2022/03/24 00:38:29;;;;;;;69.10;45.08;;;7.70;99.90;;;;;;5005132;28;20057;-74
2022/03/24 00:40:55;;;;;;;66.07;43.63;;;7.70;99.90;;;;;;4986279;28;20050;-74
2022/03/24 00:43:22;;;;;;;67.80;45.60;;;7.70;99.90;;;;;;4981374;28;20508;-74
2022/03/24 00:45:51;;;;;;;73.90;46.53;;;7.70;99.90;;;;;;4991124;28;20042;-74
2022/03/24 00:48:17;;;;;;;69.72;47.03;;;7.60;99.90;;;;;;4993149;28;20490;-74
2022/03/24 00:50:43;;;;;;;70.07;47.60;;;7.60;99.90;;;;;;4996993;28;20034;-74
2022/03/24 00:53:10;;;;;;;72.57;46.85;;;7.60;99.90;;;;;;4991993;28;20050;-73
2022/03/24 00:55:36;;;;;;;69.30;45.25;;;7.60;99.90;;;;;;5006937;28;20053;-74
2022/03/24 00:58:02;;;;;;;66.93;44.92;;;7.60;99.90;;;;;;5005572;28;20050;-74
2022/03/24 01:00:28;;;;;;;68.10;46.42;;;7.50;99.90;;;;;;4991551;28;20042;-74
2022/03/24 01:02:54;;;;;;;67.68;44.33;;;7.50;99.90;;;;;;4992458;28;20053;-74
2022/03/24 01:05:23;;;;;;;69.60;46.05;;;7.40;99.90;;;;;;5006680;28;20065;-74
2022/03/24 01:07:50;;;;;;;72.22;46.17;;;7.40;99.90;;;;;;4994863;28;20481;-74
2022/03/24 01:10:18;;;;;;;76.65;48.58;;;7.40;99.90;;;;;;4989983;28;20122;-74
2022/03/24 01:12:45;;;;;;;71.78;48.30;;;7.40;99.90;;;;;;4990695;28;20416;-74
2022/03/24 01:15:14;;;;;;;75.50;49.13;;;7.40;99.90;;;;;;4990740;28;20056;-74
2022/03/24 01:17:40;;;;;;;77.05;51.45;;;7.40;99.90;;;;;;5014683;28;20065;-75
2022/03/24 01:20:08;;;;;;;74.22;49.05;;;7.30;99.90;;;;;;4993390;28;20054;-75
2022/03/24 01:22:35;;;;;;;83.82;52.47;;;7.40;99.90;;;;;;5007264;28;20125;-75
2022/03/24 01:25:01;;;;;;;77.18;50.95;;;7.40;99.90;;;;;;5007143;28;20593;-74
2022/03/24 01:27:28;;;;;;;75.75;50.58;;;7.40;99.90;;;;;;4995620;28;20041;-75
2022/03/24 01:29:55;;;;;;;81.18;50.78;;;7.30;99.90;;;;;;5010346;28;20070;-74
2022/03/24 01:32:26;;;;;;;82.07;51.25;;;7.30;99.90;;;;;;5008255;28;20077;-75
2022/03/24 01:34:53;;;;;;;84.40;54.45;;;7.30;99.90;;;;;;4995050;28;20048;-75
2022/03/24 01:37:18;;;;;;;84.28;53.15;;;7.30;99.90;;;;;;5001609;28;20127;-74
2022/03/24 01:39:44;;;;;;;79.90;52.25;;;7.20;99.90;;;;;;4994357;28;20494;-74
2022/03/24 01:42:10;;;;;;;81.35;51.08;;;7.20;99.90;;;;;;5005773;28;20095;-74
2022/03/24 01:44:36;;;;;;;83.90;52.17;;;7.10;99.90;;;;;;4993171;28;20046;-75
2022/03/24 01:47:09;;;;;;;87.50;54.63;;;7.10;99.90;;;;;;4986712;28;20049;-75
2022/03/24 01:49:41;;;;;;;82.43;53.55;;;7.10;99.90;;;;;;4997375;28;20124;-75
2022/03/24 01:52:08;;;;;;;87.55;56.30;;;7.00;99.90;;;;;;4987966;28;20046;-74
2022/03/24 01:54:37;;;;;;;88.70;58.03;;;7.00;99.90;;;;;;5013741;28;20144;-75
2022/03/24 01:57:04;;;;;;;93.65;58.85;;;7.00;99.90;;;;;;4992627;28;20069;-75
2022/03/24 01:59:31;;;;;;;94.53;60.95;;;7.00;99.90;;;;;;5013580;28;20072;-75
2022/03/24 02:01:57;;;;;;;93.82;60.40;;;7.00;99.90;;;;;;4997114;28;20500;-74
2022/03/24 02:04:23;;;;;;;88.50;58.05;;;7.00;99.90;;;;;;4993113;28;20116;-74
2022/03/24 02:06:49;;;;;;;83.68;55.53;;;7.00;99.90;;;;;;5004783;28;20072;-76
2022/03/24 02:09:15;;;;;;;90.05;57.00;;;7.00;99.90;;;;;;5002011;28;20531;-74
2022/03/24 02:11:41;;;;;;;92.90;57.00;;;6.90;99.90;;;;;;4995237;28;20045;-74
2022/03/24 02:14:08;;;;;;;95.10;61.33;;;6.90;99.90;;;;;;4994911;28;20038;-74
2022/03/24 02:16:38;;;;;;;99.72;60.83;;;6.90;99.90;;;;;;5010626;28;20524;-74
2022/03/24 02:19:11;;;;;;;97.70;60.63;;;6.90;99.90;;;;;;4996959;28;20046;-75
2022/03/24 02:21:41;;;;;;;101.53;62.38;;;6.90;99.90;;;;;;5007131;28;20041;-75
2022/03/24 02:24:08;;;;;;;99.38;64.47;;;6.90;99.90;;;;;;4996748;28;20589;-74
2022/03/24 02:26:35;;;;;;;98.50;62.80;;;7.00;99.90;;;;;;4994130;28;20045;-74
2022/03/24 02:29:06;;;;;;;103.05;65.78;;;6.90;99.90;;;;;;5008018;28;20045;-75
2022/03/24 02:31:33;;;;;;;107.00;64.72;;;6.90;99.90;;;;;;5009816;28;20046;-75
2022/03/24 02:36:45;;;;;;;107.13;66.15;;;7.00;99.90;;;;;;5012632;28;20041;-76
2022/03/24 02:39:11;;;;;;;108.93;64.20;;;6.90;99.90;;;;;;4990652;28;20068;-75
2022/03/24 02:41:46;;;;;;;111.88;67.75;;;6.90;99.90;;;;;;4997789;28;20403;-76
2022/03/24 02:44:14;;;;;;;108.93;67.45;;;6.90;99.90;;;;;;4996881;28;21183;-76
2022/03/24 02:46:42;;;;;;;114.68;68.72;;;6.80;99.90;;;;;;5009732;28;20050;-76
2022/03/24 02:49:09;;;;;;;110.07;66.32;;;6.80;99.90;;;;;;5000512;28;20045;-76
2022/03/24 02:51:36;;;;;;;110.35;67.47;;;6.80;99.90;;;;;;5005736;28;20498;-75
2022/03/24 02:54:03;;;;;;;114.85;67.45;;;6.80;99.90;;;;;;4988545;28;20045;-76
2022/03/24 02:56:30;;;;;;;112.28;66.18;;;6.80;99.90;;;;;;5009370;28;20061;-75
2022/03/24 02:58:56;;;;;;;117.97;66.60;;;6.80;99.90;;;;;;4996916;28;20405;-74
2022/03/24 03:01:25;;;;;;;105.70;64.93;;;6.70;99.90;;;;;;4998469;28;20051;-73
2022/03/24 03:03:52;;;;;;;103.07;62.63;;;6.70;99.90;;;;;;4997794;28;20073;-74
2022/03/24 03:06:19;;;;;;;105.95;65.40;;;6.70;99.90;;;;;;4991445;28;20136;-75
2022/03/24 03:08:46;;;;;;;110.15;64.43;;;6.60;99.90;;;;;;4994798;28;20041;-74
2022/03/24 03:11:12;;;;;;;109.10;64.00;;;6.60;99.90;;;;;;4997437;28;20296;-74
2022/03/24 03:13:37;;;;;;;101.00;59.95;;;6.50;99.90;;;;;;5006423;28;20300;-75
2022/03/24 03:16:04;;;;;;;106.35;63.95;;;6.50;99.90;;;;;;5007316;28;20041;-74
2022/03/24 03:18:32;;;;;;;107.95;64.22;;;6.50;99.90;;;;;;5012067;28;20038;-74
2022/03/24 03:20:59;;;;;;;103.85;63.53;;;6.40;99.90;;;;;;4991056;28;20037;-75
2022/03/24 03:23:25;;;;;;;107.28;64.68;;;6.40;99.90;;;;;;4995800;28;20052;-74
2022/03/24 03:25:51;;;;;;;109.03;67.28;;;6.40;99.90;;;;;;5004484;28;20050;-74
2022/03/24 03:28:18;;;;;;;108.75;66.63;;;6.30;99.90;;;;;;5005914;28;20098;-74
2022/03/24 03:30:45;;;;;;;116.28;67.57;;;6.20;99.90;;;;;;4992139;28;20041;-74
2022/03/24 03:33:11;;;;;;;110.95;66.75;;;6.20;99.90;;;;;;4991446;28;20046;-74
2022/03/24 03:35:37;;;;;;;107.38;64.32;;;6.20;99.90;;;;;;4998950;28;20094;-74
2022/03/24 03:38:04;;;;;;;109.47;67.47;;;6.20;99.90;;;;;;4993856;28;20037;-74
2022/03/24 03:40:29;;;;;;;110.18;66.38;;;6.20;99.90;;;;;;4999722;28;20041;-74
2022/03/24 03:42:55;;;;;;;106.18;63.53;;;6.20;99.90;;;;;;5012312;28;20075;-74
2022/03/24 03:45:21;;;;;;;108.68;63.13;;;6.10;99.90;;;;;;4985412;28;20491;-74
2022/03/24 03:47:47;;;;;;;97.70;57.78;;;6.10;99.90;;;;;;5006757;28;20044;-74
2022/03/24 03:50:13;;;;;;;99.00;60.38;;;6.10;99.90;;;;;;5006468;28;20046;-74
2022/03/24 03:52:39;;;;;;;104.60;61.63;;;6.00;99.90;;;;;;5005689;28;20077;-74
2022/03/24 03:55:06;;;;;;;99.00;58.13;;;5.90;99.90;;;;;;4988132;28;20048;-73
2022/03/24 03:57:32;;;;;;;102.28;60.90;;;5.90;99.90;;;;;;4994806;28;20053;-73
2022/03/24 04:00:52;;;;;;;99.05;58.60;;;5.90;99.90;;;;;;4987805;28;20049;-74
2022/03/24 04:02:43;;;;;;;103.85;60.65;;;5.80;99.90;;;;;;5008047;28;20038;-74
2022/03/24 04:05:09;;;;;;;102.85;64.30;;;5.80;99.90;;;;;;4995361;28;20139;-74
2022/03/24 04:07:35;;;;;;;106.82;64.15;;;5.80;99.90;;;;;;4996538;28;20038;-74
2022/03/24 04:10:00;;;;;;;106.15;62.55;;;5.70;99.90;;;;;;4992534;28;20057;-74
2022/03/24 04:12:26;;;;;;;101.90;60.88;;;5.70;99.90;;;;;;4996464;28;20575;-74
2022/03/24 04:14:52;;;;;;;102.65;61.78;;;5.60;99.90;;;;;;4978476;28;20058;-74
2022/03/24 04:17:18;;;;;;;101.10;57.15;;;5.60;99.90;;;;;;5010706;28;20038;-75
2022/03/24 04:19:43;;;;;;;105.28;62.65;;;5.70;99.90;;;;;;4997558;28;20424;-74
2022/03/24 04:22:09;;;;;;;94.72;56.20;;;5.60;99.90;;;;;;5007680;28;20045;-74
2022/03/24 04:24:35;;;;;;;93.72;55.05;;;5.60;99.90;;;;;;4989050;28;20046;-75
2022/03/24 04:27:00;;;;;;;99.93;58.45;;;5.60;99.90;;;;;;4992148;28;20046;-76
2022/03/24 04:29:26;;;;;;;111.72;63.80;;;5.70;99.90;;;;;;5006161;28;20544;-76
2022/03/24 04:31:52;;;;;;;106.30;61.92;;;5.60;99.90;;;;;;4991737;28;20033;-75
2022/03/24 04:34:17;;;;;;;115.10;66.95;;;5.60;99.90;;;;;;4985250;28;20057;-75
2022/03/24 04:36:43;;;;;;;108.88;63.90;;;5.60;99.90;;;;;;5005214;28;20402;-75
2022/03/24 04:39:08;;;;;;;115.25;65.00;;;5.50;99.90;;;;;;5009948;28;20049;-75
2022/03/24 04:41:34;;;;;;;107.03;61.35;;;5.50;99.90;;;;;;5006549;28;20064;-75
2022/03/24 04:44:01;;;;;;;113.63;64.38;;;5.50;99.90;;;;;;5006994;28;20053;-76
2022/03/24 04:46:27;;;;;;;109.68;61.67;;;5.50;99.90;;;;;;4991252;28;20501;-75
2022/03/24 04:48:52;;;;;;;104.20;61.30;;;5.50;99.90;;;;;;4992657;28;20053;-75
2022/03/24 04:51:18;;;;;;;112.60;64.47;;;5.50;99.90;;;;;;4990242;28;20417;-75
2022/03/24 04:53:43;;;;;;;106.63;62.55;;;5.40;99.90;;;;;;4996813;28;20056;-76
2022/03/24 04:56:10;;;;;;;100.45;56.80;;;5.40;99.90;;;;;;4995300;28;20050;-76
2022/03/24 04:58:35;;;;;;;103.72;59.90;;;5.40;99.90;;;;;;4994976;28;20049;-76
2022/03/24 05:01:01;;;;;;;103.78;60.22;;;5.40;99.90;;;;;;5012625;28;20050;-76
2022/03/24 05:03:28;;;;;;;111.25;61.50;;;5.40;99.90;;;;;;4993014;28;20038;-76
2022/03/24 05:05:54;;;;;;;108.55;63.50;;;5.30;99.90;;;;;;5004798;28;20037;-76
2022/03/24 05:08:20;;;;;;;101.70;58.58;;;5.30;99.90;;;;;;5013223;28;21062;-76
2022/03/24 05:10:46;;;;;;;109.57;63.72;;;5.30;99.90;;;;;;5013715;28;20042;-76
2022/03/24 05:13:11;;;;;;;100.10;60.28;;;5.20;99.90;;;;;;4997167;28;20053;-76
2022/03/24 05:15:38;;;;;;;104.15;60.70;;;5.20;99.90;;;;;;4999072;28;20051;-75
2022/03/24 05:18:04;;;;;;;110.05;60.45;;;5.20;99.90;;;;;;4989253;28;20046;-76
2022/03/24 05:20:30;;;;;;;115.15;65.07;;;5.20;99.90;;;;;;4990741;28;20437;-76
2022/03/24 05:22:56;;;;;;;112.57;62.97;;;5.20;99.90;;;;;;4993063;28;20045;-76
2022/03/24 05:25:21;;;;;;;114.85;65.10;;;5.20;99.90;;;;;;4995660;28;20161;-75
2022/03/24 05:27:47;;;;;;;125.90;68.90;;;5.20;99.90;;;;;;4995045;28;20060;-75
2022/03/24 05:30:13;;;;;;;130.30;71.95;;;5.20;99.90;;;;;;4998354;28;20054;-75
2022/03/24 05:32:42;;;;;;;128.00;70.10;;;5.30;99.90;;;;;;5001186;28;20052;-75
2022/03/24 05:35:09;;;;;;;127.20;70.50;;;5.40;99.90;;;;;;5011111;28;20092;-75
2022/03/24 05:37:34;;;;;;;119.18;66.63;;;5.40;99.90;;;;;;4996010;28;20520;-76
2022/03/24 05:40:00;;;;;;;112.40;65.22;;;5.40;99.90;;;;;;4996650;28;20107;-75
2022/03/24 05:42:27;;;;;;;117.63;67.07;;;5.30;99.90;;;;;;4996834;28;20100;-77
2022/03/24 05:44:53;;;;;;;123.70;65.93;;;5.30;99.90;;;;;;4994934;28;20045;-75
2022/03/24 05:47:19;;;;;;;112.28;63.95;;;5.30;99.90;;;;;;5000648;28;20047;-76
2022/03/24 05:49:45;;;;;;;118.38;65.95;;;5.30;99.90;;;;;;5004134;28;20591;-74
2022/03/24 05:52:11;;;;;;;112.38;62.67;;;5.20;99.90;;;;;;4981487;28;20046;-74
2022/03/24 05:54:37;;;;;;;111.03;63.45;;;5.20;99.90;;;;;;5006338;28;20739;-75
2022/03/24 05:57:03;;;;;;;114.68;65.25;;;5.20;99.90;;;;;;5012864;28;20041;-75
2022/03/24 05:59:29;;;;;;;115.18;66.82;;;5.20;99.90;;;;;;4991125;28;20048;-75
2022/03/24 06:01:55;;;;;;;110.28;59.05;;;5.20;99.90;;;;;;5006847;28;20042;-73
2022/03/24 06:04:23;;;;;;;101.22;57.30;;;5.30;99.90;;;;;;4987411;28;20553;-74
2022/03/24 06:06:53;;;;;;;83.25;47.60;;;5.30;99.90;;;;;;4992033;28;20057;-76
2022/03/24 06:09:21;;;;;;;80.20;44.03;;;5.30;99.90;;;;;;4995081;28;20405;-76
2022/03/24 06:11:52;;;;;;;77.45;43.65;;;5.30;99.90;;;;;;4997086;28;20128;-74
2022/03/24 06:14:17;;;;;;;91.63;52.60;;;5.20;99.90;;;;;;5013687;28;20513;-74
2022/03/24 06:16:43;;;;;;;97.32;55.67;;;5.20;99.90;;;;;;4996779;28;20042;-74
2022/03/24 06:19:09;;;;;;;95.60;53.95;;;5.20;99.90;;;;;;5012091;28;20120;-70
2022/03/24 06:21:36;;;;;;;97.32;56.65;;;5.30;99.90;;;;;;5009391;28;20100;-71
2022/03/24 06:24:03;;;;;;;109.85;58.53;;;5.40;99.90;;;;;;4994641;28;20041;-70
2022/03/24 06:26:29;;;;;;;116.63;64.32;;;5.40;99.90;;;;;;4983084;28;20343;-71
2022/03/24 06:28:55;;;;;;;109.07;60.13;;;5.60;99.90;;;;;;5008442;28;20049;-70
2022/03/24 06:31:21;;;;;;;111.20;63.03;;;5.70;99.90;;;;;;5006478;28;20056;-72
2022/03/24 06:33:48;;;;;;;118.75;62.67;;;5.80;99.90;;;;;;5009778;28;20437;-73
2022/03/24 06:36:14;;;;;;;120.43;65.85;;;5.90;99.90;;;;;;4990185;28;20113;-73
2022/03/24 06:38:39;;;;;;;113.63;63.35;;;6.00;99.90;;;;;;5011417;28;20203;-74
2022/03/24 06:41:06;;;;;;;110.93;63.50;;;6.10;99.90;;;;;;5014916;28;20150;-73
2022/03/24 06:43:34;;;;;;;109.10;63.03;;;6.20;99.90;;;;;;5009767;28;20046;-74
2022/03/24 06:45:59;;;;;;;108.47;61.50;;;6.20;99.90;;;;;;5009747;28;20046;-74
2022/03/24 06:48:25;;;;;;;107.38;61.20;;;6.30;99.90;;;;;;5001869;28;20444;-73
2022/03/24 06:50:51;;;;;;;108.78;61.58;;;6.40;99.90;;;;;;5014502;28;20500;-73
2022/03/24 06:53:17;;;;;;;106.00;60.85;;;6.50;99.90;;;;;;5006864;28;20525;-74
2022/03/24 06:55:43;;;;;;;105.10;60.78;;;6.60;99.90;;;;;;5006012;28;20069;-73
2022/03/24 06:58:08;;;;;;;104.57;61.00;;;6.70;99.90;;;;;;4987279;28;20474;-72
2022/03/24 07:00:34;;;;;;;110.28;61.92;;;6.90;99.90;;;;;;5005713;28;20053;-73
2022/03/24 07:03:01;;;;;;;103.95;61.22;;;7.00;99.90;;;;;;4992573;28;20057;-73
2022/03/24 07:05:27;;;;;;;111.05;62.58;;;7.10;99.90;;;;;;4993380;28;20042;-73
2022/03/24 07:07:54;;;;;;;114.03;62.67;;;7.30;99.90;;;;;;4993484;28;20061;-73
2022/03/24 07:10:20;;;;;;;100.30;58.42;;;7.40;99.90;;;;;;5002354;28;20053;-72
2022/03/24 07:12:48;;;;;;;100.47;58.15;;;7.50;99.90;;;;;;5011823;28;20058;-74
2022/03/24 07:15:14;;;;;;;100.90;58.90;;;7.60;99.90;;;;;;4988968;28;20037;-72
2022/03/24 07:17:39;;;;;;;117.32;63.95;;;7.80;99.90;;;;;;4994836;28;20052;-73
2022/03/24 07:20:06;;;;;;;113.32;66.53;;;7.90;99.90;;;;;;5006575;28;20111;-73
2022/03/24 07:22:36;;;;;;;115.95;66.88;;;8.00;99.90;;;;;;5000049;28;20399;-73
2022/03/24 07:25:05;;;;;;;112.97;67.15;;;8.20;99.90;;;;;;4990378;28;20405;-73
2022/03/24 07:27:31;;;;;;;115.32;68.97;;;8.30;99.90;;;;;;4989302;28;20046;-73
2022/03/24 07:29:56;;;;;;;117.85;67.18;;;8.40;99.90;;;;;;5009545;28;20046;-73
2022/03/24 07:32:22;;;;;;;114.78;69.25;;;8.60;99.90;;;;;;4988824;28;20046;-73
2022/03/24 07:34:48;;;;;;;122.28;70.13;;;8.70;99.90;;;;;;5008113;28;20047;-74
2022/03/24 07:37:14;;;;;;;116.38;69.00;;;8.80;99.90;;;;;;5006351;28;20045;-73
2022/03/24 07:39:40;;;;;;;114.55;71.47;;;8.90;99.90;;;;;;5007955;28;20073;-73
2022/03/24 07:42:06;;;;;;;118.85;67.78;;;9.00;99.90;;;;;;4993562;28;20095;-74
2022/03/24 07:44:32;;;;;;;110.63;69.18;;;9.10;99.90;;;;;;4992360;28;20504;-74
2022/03/24 07:46:57;;;;;;;115.82;68.22;;;9.20;99.90;;;;;;5000564;28;20033;-73
2022/03/24 07:49:23;;;;;;;116.72;70.15;;;9.30;99.90;;;;;;4999538;28;20054;-73
2022/03/24 07:51:49;;;;;;;108.53;65.07;;;9.40;99.90;;;;;;5007004;28;20045;-73
2022/03/24 07:54:15;;;;;;;113.72;66.38;;;9.60;99.90;;;;;;5001753;28;20040;-72
2022/03/24 07:56:41;;;;;;;110.00;64.40;;;9.60;99.90;;;;;;5006853;28;20046;-74
2022/03/24 07:59:06;;;;;;;110.00;65.53;;;9.70;99.90;;;;;;4999453;28;20052;-74
2022/03/24 08:01:34;;;;;;;101.18;61.30;;;9.80;99.90;;;;;;4995428;28;20156;-73
2022/03/24 08:04:02;;;;;;;101.65;62.67;;;9.90;99.90;;;;;;4992322;28;20140;-74
2022/03/24 08:06:29;;;;;;;106.20;63.47;;;10.00;99.90;;;;;;4991300;28;20048;-77
2022/03/24 08:08:56;;;;;;;100.75;61.08;;;10.00;99.90;;;;;;4998795;28;20038;-75
2022/03/24 08:11:22;;;;;;;99.78;63.20;;;10.10;99.90;;;;;;4995362;28;20058;-74
2022/03/24 08:13:54;;;;;;;92.72;59.63;;;10.20;99.90;;;;;;4990376;28;20132;-73
2022/03/24 08:16:24;;;;;;;94.07;60.50;;;10.40;99.90;;;;;;4984848;28;20042;-74
2022/03/24 08:18:50;;;;;;;93.78;59.08;;;10.40;99.90;;;;;;5014679;28;20044;-74
2022/03/24 08:21:16;;;;;;;87.70;57.47;;;10.50;99.90;;;;;;4991641;28;20042;-74
2022/03/24 08:23:42;;;;;;;90.80;56.47;;;10.60;99.90;;;;;;5009522;28;20077;-74
2022/03/24 08:26:09;;;;;;;86.78;56.17;;;10.70;99.90;;;;;;4989583;28;20046;-73
2022/03/24 08:28:35;;;;;;;89.47;56.45;;;10.80;99.90;;;;;;5006165;28;20075;-73
2022/03/24 08:31:00;;;;;;;87.03;56.05;;;10.90;99.90;;;;;;5010747;28;20046;-73
2022/03/24 08:33:26;;;;;;;84.65;53.90;;;11.00;99.90;;;;;;4990236;28;20038;-73
2022/03/24 08:35:52;;;;;;;80.70;53.40;;;11.10;99.90;;;;;;4987644;28;20046;-73
2022/03/24 08:38:17;;;;;;;81.38;52.03;;;11.20;99.90;;;;;;5006652;28;20038;-73
2022/03/24 08:40:43;;;;;;;81.25;50.88;;;11.40;99.90;;;;;;5010159;28;20034;-74
2022/03/24 08:43:09;;;;;;;80.20;50.03;;;11.50;99.90;;;;;;4989770;28;20050;-74
2022/03/24 08:45:36;;;;;;;77.43;51.03;;;11.60;99.90;;;;;;5004859;28;20048;-75
2022/03/24 08:48:02;;;;;;;80.43;52.97;;;11.60;99.90;;;;;;4981454;28;20052;-75
2022/03/24 08:50:28;;;;;;;80.15;49.55;;;11.70;99.90;;;;;;4988597;28;20046;-73
2022/03/24 08:52:55;;;;;;;78.15;52.03;;;11.80;99.90;;;;;;5013849;28;20054;-74
2022/03/24 08:55:21;;;;;;;78.10;50.97;;;11.90;99.90;;;;;;5007115;28;20050;-73
2022/03/24 08:57:46;;;;;;;76.65;51.10;;;12.00;99.90;;;;;;5004369;28;20417;-73
2022/03/24 09:00:15;;;;;;;80.38;52.40;;;12.10;99.90;;;;;;5010063;28;20046;-73
2022/03/24 09:02:48;;;;;;;76.15;49.38;;;12.20;99.90;;;;;;4988006;28;20040;-74
2022/03/24 09:05:16;;;;;;;77.55;47.47;;;12.30;99.90;;;;;;5006864;28;20065;-75
2022/03/24 09:07:42;;;;;;;68.03;46.28;;;12.40;99.90;;;;;;5014050;28;20048;-74
2022/03/24 09:10:10;;;;;;;69.22;46.13;;;12.50;99.90;;;;;;4998829;28;20042;-74
2022/03/24 09:12:38;;;;;;;71.75;44.90;;;12.50;99.90;;;;;;4994414;28;20084;-74
2022/03/24 09:15:05;;;;;;;65.63;44.20;;;12.60;99.90;;;;;;4972432;28;20049;-72
2022/03/24 09:17:32;;;;;;;66.80;41.78;;;12.70;99.90;;;;;;5006783;28;20045;-73
2022/03/24 09:19:59;;;;;;;63.10;42.33;;;12.70;99.90;;;;;;5009106;28;20072;-74
2022/03/24 09:22:24;;;;;;;67.30;41.28;;;12.80;99.90;;;;;;5002228;28;20046;-73
2022/03/24 09:24:50;;;;;;;65.32;42.70;;;12.90;99.90;;;;;;5005001;28;20034;-73
2022/03/24 09:27:16;;;;;;;70.10;44.90;;;13.00;99.90;;;;;;5003445;28;20042;-73
2022/03/24 09:29:42;;;;;;;65.05;42.92;;;13.20;99.90;;;;;;5003469;28;20045;-74
2022/03/24 09:32:12;;;;;;;67.30;43.53;;;13.20;99.90;;;;;;5007672;28;20141;-74
2022/03/24 09:34:39;;;;;;;69.78;45.13;;;13.30;99.90;;;;;;4994142;28;20045;-73
2022/03/24 09:37:05;;;;;;;64.88;44.30;;;13.40;99.90;;;;;;5008658;28;20575;-73
2022/03/24 09:39:31;;;;;;;60.97;40.63;;;13.50;99.90;;;;;;4991365;28;20062;-74
2022/03/24 09:41:57;;;;;;;61.47;42.20;;;13.50;99.90;;;;;;4990999;28;20161;-74
2022/03/24 09:44:27;;;;;;;62.45;40.88;;;13.60;99.90;;;;;;5005385;28;20042;-73
2022/03/24 09:46:53;;;;;;;59.00;38.38;;;13.70;99.90;;;;;;5011114;28;20053;-73
2022/03/24 09:49:18;;;;;;;58.38;39.63;;;13.90;99.90;;;;;;5012079;28;20045;-72
2022/03/24 09:51:44;;;;;;;56.63;37.50;;;13.90;99.90;;;;;;5009789;28;20104;-73
2022/03/24 09:54:11;;;;;;;55.03;36.65;;;14.00;99.90;;;;;;5000966;28;20047;-74
2022/03/24 09:56:39;;;;;;;51.47;34.63;;;14.10;99.90;;;;;;5001785;28;20117;-73
2022/03/24 09:59:07;;;;;;;54.95;36.53;;;14.20;99.90;;;;;;4998232;28;20480;-73
2022/03/24 10:01:33;;;;;;;49.15;33.35;;;14.30;99.90;;;;;;5012280;28;20037;-73
2022/03/24 10:04:06;;;;;;;49.15;31.63;;;14.50;99.90;;;;;;5012130;28;20049;-73
2022/03/24 10:06:33;;;;;;;51.15;31.63;;;14.60;99.90;;;;;;5008695;28;20065;-73
2022/03/24 10:08:59;;;;;;;59.58;35.95;;;14.60;99.90;;;;;;5011047;28;20104;-73
2022/03/24 10:11:26;;;;;;;44.58;28.00;;;14.80;99.90;;;;;;5010503;28;20049;-73
2022/03/24 10:13:55;;;;;;;51.30;31.02;;;14.90;99.90;;;;;;5005005;28;20045;-73
2022/03/24 10:16:41;;;;;;;44.08;27.65;;;15.00;99.90;;;;;;5002264;28;20385;-73
2022/03/24 10:19:18;;;;;;;44.15;28.88;;;15.00;99.90;;;;;;5009291;28;20575;-73
2022/03/24 10:21:47;;;;;;;44.78;30.33;;;15.10;99.90;;;;;;5011489;28;20120;-74
2022/03/24 10:24:21;;;;;;;45.45;30.95;;;15.20;99.90;;;;;;4999611;28;20046;-74
2022/03/24 10:26:49;;;;;;;52.78;34.15;;;15.30;99.90;;;;;;5005142;28;20053;-73
2022/03/24 10:29:18;;;;;;;44.25;31.10;;;15.30;99.90;;;;;;5013224;28;20112;-73
2022/03/24 10:31:44;;;;;;;48.60;31.25;;;15.30;99.90;;;;;;5003789;28;20045;-73
2022/03/24 10:34:12;;;;;;;49.13;32.88;;;15.40;99.90;;;;;;5003546;28;20037;-73
2022/03/24 10:36:41;;;;;;;49.05;32.08;;;15.50;99.90;;;;;;5001299;28;20045;-73
2022/03/24 10:39:08;;;;;;;49.58;34.00;;;15.50;99.90;;;;;;5003446;28;20570;-74
2022/03/24 10:41:36;;;;;;;54.55;34.55;;;15.50;99.90;;;;;;5012751;28;20041;-72
2022/03/24 10:44:09;;;;;;;49.58;32.50;;;15.60;99.90;;;;;;5013351;28;20100;-74
2022/03/24 10:46:37;;;;;;;46.40;30.63;;;15.70;99.90;;;;;;5011443;28;20140;-72
2022/03/24 10:49:23;;;;;;;51.47;33.58;;;15.70;99.90;;;;;;4989276;28;20045;-73
2022/03/24 10:51:51;;;;;;;50.92;33.65;;;15.80;99.90;;;;;;5009437;28;20100;-72
2022/03/24 10:54:41;;;;;;;50.22;35.13;;;15.80;99.90;;;;;;4993081;28;20048;-74
2022/03/24 10:57:20;;;;;;;50.78;34.53;;;15.90;99.90;;;;;;5017481;28;20041;-77
2022/03/24 10:59:47;;;;;;;54.40;35.78;;;15.90;99.90;;;;;;4998889;28;20042;-77
2022/03/24 11:02:15;;;;;;;52.15;36.55;;;15.90;99.90;;;;;;5013402;28;20049;-77
2022/03/24 11:04:41;;;;;;;51.85;37.40;;;15.90;99.90;;;;;;4992583;28;20081;-78
2022/03/24 11:07:07;;;;;;;59.22;39.08;;;15.90;99.90;;;;;;5008742;28;20402;-77
2022/03/24 11:09:34;;;;;;;57.33;38.22;;;16.00;99.90;;;;;;5007988;28;20053;-77
2022/03/24 11:12:22;;;;;;;56.55;38.10;;;16.00;99.90;;;;;;5009857;28;20123;-78
2022/03/24 11:14:54;;;;;;;56.22;38.33;;;16.00;99.90;;;;;;5006805;28;20172;-78
2022/03/24 11:17:24;;;;;;;60.70;38.75;;;16.10;99.90;;;;;;5001041;28;20072;-79
2022/03/24 11:19:57;;;;;;;60.80;36.03;;;16.10;99.90;;;;;;4995599;28;20030;-77
2022/03/24 11:22:43;;;;;;;60.83;40.55;;;16.20;99.90;;;;;;5006501;28;20087;-80
2022/03/24 11:25:10;;;;;;;59.75;39.42;;;16.20;99.90;;;;;;5014755;28;20049;-79
2022/03/24 11:27:37;;;;;;;60.22;39.42;;;16.30;99.90;;;;;;4998421;28;20049;-78
2022/03/24 11:30:05;;;;;;;61.28;39.80;;;16.40;99.90;;;;;;5000646;28;20550;-78
2022/03/24 11:32:35;;;;;;;62.13;41.15;;;16.40;99.90;;;;;;5014560;28;20135;-77
2022/03/24 11:35:03;;;;;;;57.80;40.53;;;16.40;99.90;;;;;;5008248;28;20402;-78
2022/03/24 11:37:29;;;;;;;59.30;40.33;;;16.50;99.90;;;;;;5011571;28;20537;-78
2022/03/24 11:40:07;;;;;;;61.13;40.38;;;16.50;99.90;;;;;;5008769;28;20045;-78
2022/03/24 11:42:37;;;;;;;56.17;40.90;;;16.50;99.90;;;;;;4991249;28;20366;-78
2022/03/24 11:45:32;;;;;;;59.42;40.22;;;16.50;99.90;;;;;;5008768;28;20069;-78
2022/03/24 11:48:00;;;;;;;63.03;40.08;;;16.50;99.90;;;;;;5001814;28;20049;-78
2022/03/24 11:50:45;;;;;;;57.47;38.03;;;16.50;99.90;;;;;;4993664;28;20461;-78
2022/03/24 11:53:20;;;;;;;61.13;38.22;;;16.60;99.90;;;;;;4996348;28;20046;-78
2022/03/24 11:56:01;;;;;;;61.50;40.58;;;16.60;99.90;;;;;;5002511;28;20049;-78
2022/03/24 11:58:36;;;;;;;56.10;38.33;;;16.60;99.90;;;;;;5000147;28;20100;-78
2022/03/24 12:01:17;;;;;;;58.15;37.17;;;16.70;99.90;;;;;;4987956;28;20091;-77
2022/03/24 12:03:55;;;;;;;56.28;37.95;;;16.60;99.90;;;;;;4995954;28;20077;-77
2022/03/24 12:06:40;;;;;;;48.20;31.25;;;16.70;99.90;;;;;;4994028;28;20227;-78
2022/03/24 12:09:11;;;;;;;56.20;37.60;;;16.70;99.90;;;;;;4988118;28;20100;-77
2022/03/24 12:11:45;;;;;;;56.38;35.97;;;16.80;99.90;;;;;;4987898;28;20497;-78
2022/03/24 12:14:16;;;;;;;52.25;35.83;;;16.90;99.90;;;;;;4989192;28;20156;-78
2022/03/24 12:16:51;;;;;;;47.75;31.48;;;16.90;99.70;;;;;;5000970;28;20493;-78
2022/03/24 12:19:41;;;;;;;51.45;32.75;;;16.80;99.20;;;;;;5013694;28;20136;-78
2022/03/24 12:22:25;;;;;;;48.28;32.42;;;16.80;97.00;;;;;;4996549;28;20127;-78
2022/03/24 12:24:53;;;;;;;53.70;32.05;;;16.80;97.40;;;;;;5002280;28;20041;-79
2022/03/24 12:27:18;;;;;;;43.95;29.00;;;16.80;97.00;;;;;;5010995;28;20037;-78
2022/03/24 12:30:10;;;;;;;48.25;32.30;;;16.70;96.30;;;;;;4995774;28;20404;-78
2022/03/24 12:32:36;;;;;;;50.60;32.33;;;16.80;96.10;;;;;;4990254;28;20053;-79
2022/03/24 12:35:03;;;;;;;50.95;32.42;;;16.80;95.20;;;;;;5006055;28;20038;-77